Aviation Digital Data Service (ADDS)

Output produced by METARs form (1955 UTC 30 August 2015)
found at http://www.aviationweather.gov/adds/metars/
 
KJST 301854Z AUTO 29009KT 10SM SCT046 27/14 A3015 RMK AO2 SLP194 T02720139
KJST 301754Z AUTO 28009KT 10SM FEW037 27/16 A3017 RMK AO2 SLP202 T02670156 10267 20183 57009
KJST 301654Z AUTO 25006KT 10SM FEW034 25/17 A3018 RMK AO2 SLP204 T02500167
KJST 301554Z AUTO 25007KT 10SM CLR 24/17 A3019 RMK AO2 SLP210 T02390167
KJST 301454Z AUTO VRB05KT 10SM CLR 22/17 A3020 RMK AO2 SLP213 T02220172 53002
KJST 301354Z AUTO 00000KT 10SM FEW120 20/17 A3019 RMK AO2 SLP209 T02000167
KJST 301339Z AUTO 27003KT 10SM SCT013 20/16 A3019 RMK AO2 T02000161
KJST 301324Z AUTO 27005KT 10SM BKN013 21/17 A3019 RMK AO2 T02060167
KJST 301302Z AUTO 25003KT 10SM SCT012 19/16 A3019 RMK AO2 T01940161
KJST 301254Z AUTO VRB03KT 10SM BKN012 20/17 A3019 RMK AO2 SLP210 T02000167
KJST 301243Z AUTO 00000KT 10SM BKN014 19/16 A3020 RMK AO2 T01890161
KJST 301230Z AUTO 26003KT 10SM SCT009 OVC018 18/16 A3020 RMK AO2 T01830156
KJST 301154Z AUTO 26007KT 10SM FEW013 BKN020 BKN040 18/14 A3020 RMK AO2 SLP211 T01830144 10200 20178 53015
KJST 301130Z AUTO 25005KT 10SM SCT022 BKN029 18/14 A3019 RMK AO2 T01830144
KJST 301054Z AUTO 21006KT 10SM FEW037 18/14 A3018 RMK AO2 SLP204 T01830144
KJST 300954Z AUTO 23007KT 10SM CLR 19/14 A3016 RMK AO2 SLP197 T01890139
KJST 300854Z AUTO 21006KT 10SM CLR 18/14 A3015 RMK AO2 SLP194 T01830139 56004
KJST 300754Z AUTO 22005KT 10SM CLR 18/14 A3015 RMK AO2 SLP194 T01780139
KJST 300654Z AUTO 22007KT 10SM CLR 19/13 A3015 RMK AO2 SLP194 T01890133
KJST 300554Z AUTO 23005KT 10SM CLR 18/12 A3016 RMK AO2 SLP199 T01780122 10233 20178 56005
KJST 300454Z AUTO 18006KT 10SM CLR 20/12 A3016 RMK AO2 SLP198 T02000117 402670150
KJST 300354Z AUTO 25005KT 10SM CLR 19/12 A3017 RMK AO2 SLP202 T01940122
KJST 300254Z AUTO 17005KT 10SM CLR 20/12 A3017 RMK AO2 SLP204 T02000117 50007
KJST 300154Z AUTO 15003KT 10SM CLR 21/12 A3018 RMK AO2 SLP206 T02110122
KJST 300054Z AUTO 00000KT 10SM CLR 22/12 A3016 RMK AO2 SLP201 T02220122
KJST 292354Z AUTO 00000KT 10SM CLR 23/12 A3015 RMK AO2 SLP199 T02330122 10267 20233 56007
KJST 292254Z AUTO 00000KT 10SM CLR 25/12 A3016 RMK AO2 SLP200 T02500122
KJST 292154Z AUTO 26006KT 10SM FEW060 26/12 A3017 RMK AO2 SLP201 T02610122
KJST 292054Z AUTO 32006KT 10SM CLR 26/12 A3018 RMK AO2 SLP205 T02610117 58013
KJST 291954Z AUTO 29011G14KT 10SM FEW060 26/12 A3019 RMK AO2 SLP209 T02610122
KJST 291854Z AUTO 29008KT 10SM SCT055 25/12 A3021 RMK AO2 SLP216 T02500122
KJST 291754Z AUTO 26009KT 10SM FEW046 25/12 A3022 RMK AO2 SLP220 T02500117 10250 20167 58013
KJST 291654Z AUTO 31008KT 10SM FEW040 24/13 A3024 RMK AO2 SLP228 T02390128
KJST 291554Z AUTO 25008KT 10SM CLR 23/13 A3025 RMK AO2 SLP232 T02330133
KJST 291454Z AUTO 24006KT 10SM CLR 22/14 A3026 RMK AO2 SLP235 T02170139 53006
KJST 291354Z AUTO 22005KT 10SM CLR 19/14 A3025 RMK AO2 SLP234 T01940144
KJST 291254Z AUTO 22005KT 10SM CLR 17/14 A3024 RMK AO2 SLP231 T01720139
KJST 291154Z AUTO 22005KT 9SM CLR 17/14 A3024 RMK AO2 SLP231 T01670139 10167 20150 53008
KJST 291054Z AUTO 19005KT 9SM CLR 15/12 A3022 RMK AO2 SLP223 T01500122
KJST 290954Z AUTO 20004KT 10SM FEW043 16/12 A3020 RMK AO2 SLP216 T01560122
KJST 290854Z AUTO 21005KT 10SM FEW042 16/13 A3021 RMK AO2 SLP219 T01560128 56004